Time;durP1;ratioP1;P1;durP2;ratioP2;P2;SDS_P1;SDS_P2;PMS_P1;PMS_P2;Temp;Humidity;BMP_temperature;BMP_pressure;BME280_temperature;BME280_humidity;BME280_pressure;Samples;Min_cycle;Max_cycle;Signal;HPM_P1;HPM_P2
2022/12/04 00:00:13;;;;;;;13.88;9.07;;;5.50;99.90;;;;;;4992902;28;20031;-69
2022/12/04 00:02:39;;;;;;;14.07;8.77;;;5.50;99.90;;;;;;4992179;28;20146;-69
2022/12/04 00:05:06;;;;;;;15.95;9.85;;;5.60;99.90;;;;;;4992883;28;20026;-69
2022/12/04 00:07:31;;;;;;;15.70;10.05;;;5.60;99.90;;;;;;4999673;28;20073;-69
2022/12/04 00:09:57;;;;;;;17.63;10.50;;;5.60;99.90;;;;;;4993455;28;20066;-69
2022/12/04 00:12:23;;;;;;;17.75;10.00;;;5.50;99.90;;;;;;4989464;28;20089;-69
2022/12/04 00:14:49;;;;;;;15.15;9.63;;;5.50;99.90;;;;;;4997933;28;20499;-69
2022/12/04 00:17:14;;;;;;;17.27;10.57;;;5.50;99.90;;;;;;5002973;28;20030;-69
2022/12/04 00:19:40;;;;;;;16.10;9.98;;;5.50;99.90;;;;;;4995118;28;20077;-69
2022/12/04 00:22:06;;;;;;;13.38;7.75;;;5.60;99.90;;;;;;5003627;28;20441;-69
2022/12/04 00:24:32;;;;;;;13.43;8.02;;;5.60;99.90;;;;;;5003688;28;20451;-69
2022/12/04 00:26:58;;;;;;;13.68;8.50;;;5.60;99.90;;;;;;4994828;28;20507;-69
2022/12/04 00:29:23;;;;;;;15.48;8.93;;;5.60;99.90;;;;;;4991091;28;20030;-69
2022/12/04 00:31:49;;;;;;;13.68;8.93;;;5.60;99.90;;;;;;5008353;28;20030;-69
2022/12/04 00:34:14;;;;;;;13.15;8.32;;;5.60;99.90;;;;;;4995169;28;20117;-68
2022/12/04 00:36:40;;;;;;;16.52;10.45;;;5.60;99.90;;;;;;5002112;28;20122;-69
2022/12/04 00:39:06;;;;;;;14.38;9.32;;;5.60;99.90;;;;;;5001046;28;20030;-69
2022/12/04 00:41:32;;;;;;;18.40;11.27;;;5.50;99.90;;;;;;4999710;28;20031;-69
2022/12/04 00:44:01;;;;;;;17.40;10.70;;;5.50;99.90;;;;;;4994835;28;20034;-69
2022/12/04 00:46:28;;;;;;;18.45;11.07;;;5.50;99.90;;;;;;4998955;28;20030;-69
2022/12/04 00:48:54;;;;;;;16.33;10.63;;;5.50;99.90;;;;;;5000930;28;20097;-69
2022/12/04 00:51:22;;;;;;;15.82;10.25;;;5.60;99.90;;;;;;4995177;28;20485;-69
2022/12/04 00:53:47;;;;;;;17.05;11.15;;;5.60;99.90;;;;;;4993813;28;20026;-69
2022/12/04 00:56:16;;;;;;;19.35;12.98;;;5.60;99.90;;;;;;5002540;28;20034;-69
2022/12/04 00:58:42;;;;;;;18.23;11.25;;;5.60;99.90;;;;;;4995574;28;20066;-69
2022/12/04 01:01:11;;;;;;;16.95;10.90;;;5.50;99.90;;;;;;4988459;28;20057;-69
2022/12/04 01:03:38;;;;;;;18.98;11.82;;;5.50;99.90;;;;;;4993467;28;20117;-68
2022/12/04 01:06:04;;;;;;;14.38;9.20;;;5.60;99.90;;;;;;4999951;28;20392;-69
2022/12/04 01:08:31;;;;;;;16.33;9.98;;;5.60;99.90;;;;;;4996923;28;20101;-69
2022/12/04 01:10:57;;;;;;;14.55;9.50;;;5.60;99.90;;;;;;4992900;28;20033;-69
2022/12/04 01:13:24;;;;;;;14.65;9.25;;;5.70;99.90;;;;;;5002479;28;20060;-69
2022/12/04 01:15:50;;;;;;;14.90;9.07;;;5.70;99.90;;;;;;5000154;28;20042;-69
2022/12/04 01:18:16;;;;;;;16.10;11.20;;;5.70;99.90;;;;;;5000101;28;20114;-69
2022/12/04 01:20:50;;;;;;;16.08;10.13;;;5.60;99.90;;;;;;5004100;28;20038;-69
2022/12/04 01:23:17;;;;;;;15.55;10.15;;;5.60;99.90;;;;;;5000716;28;20897;-69
2022/12/04 01:25:54;;;;;;;13.25;8.55;;;5.50;99.90;;;;;;5001726;28;20523;-69
2022/12/04 01:28:20;;;;;;;19.55;10.88;;;5.50;99.90;;;;;;5002384;28;20049;-69
2022/12/04 01:31:03;;;;;;;14.18;9.30;;;5.60;99.90;;;;;;5003537;28;20038;-69
2022/12/04 01:33:30;;;;;;;13.45;8.00;;;5.70;99.90;;;;;;5001588;28;20034;-69
2022/12/04 01:35:58;;;;;;;13.38;8.10;;;5.60;99.90;;;;;;5002506;28;20030;-69
2022/12/04 01:38:25;;;;;;;13.15;7.35;;;5.60;99.90;;;;;;4998630;28;20033;-69
2022/12/04 01:40:51;;;;;;;15.32;8.32;;;5.60;99.90;;;;;;5002349;28;20030;-69
2022/12/04 01:43:17;;;;;;;12.20;7.20;;;5.70;99.90;;;;;;5000057;28;20042;-69
2022/12/04 01:45:46;;;;;;;10.52;6.47;;;5.70;99.90;;;;;;5001940;28;20034;-69
2022/12/04 01:48:12;;;;;;;12.05;6.75;;;5.80;99.90;;;;;;5002350;28;20038;-69
2022/12/04 01:50:38;;;;;;;15.55;9.20;;;5.80;99.90;;;;;;5003310;28;20503;-69
2022/12/04 01:53:04;;;;;;;15.15;11.35;;;5.80;99.90;;;;;;5006652;28;20502;-69
2022/12/04 01:55:30;;;;;;;11.90;7.47;;;5.60;99.90;;;;;;4998835;28;20133;-69
2022/12/04 01:57:57;;;;;;;11.18;7.25;;;5.60;99.90;;;;;;5000306;28;20121;-69
2022/12/04 02:00:23;;;;;;;14.80;8.38;;;5.70;99.90;;;;;;5003544;28;20018;-68
2022/12/04 02:02:48;;;;;;;14.15;8.73;;;5.70;99.90;;;;;;4998491;28;20042;-69
2022/12/04 02:05:19;;;;;;;15.50;10.23;;;5.70;99.90;;;;;;4999641;28;20042;-69
2022/12/04 02:07:49;;;;;;;15.60;9.57;;;5.70;99.90;;;;;;5008639;28;20037;-69
2022/12/04 02:10:23;;;;;;;15.13;8.85;;;5.70;99.90;;;;;;5002520;28;20038;-69
2022/12/04 02:12:57;;;;;;;15.23;9.20;;;5.60;99.90;;;;;;5006249;28;20477;-69
2022/12/04 02:15:41;;;;;;;13.85;9.82;;;5.50;99.90;;;;;;5003524;28;20097;-69
2022/12/04 02:18:19;;;;;;;14.68;8.90;;;5.50;99.90;;;;;;5004676;28;20370;-69
2022/12/04 02:21:02;;;;;;;16.23;10.43;;;5.50;99.90;;;;;;5005812;28;20025;-68
2022/12/04 02:23:47;;;;;;;12.25;8.23;;;5.50;99.90;;;;;;5002296;28;20046;-69
2022/12/04 02:26:35;;;;;;;15.55;9.07;;;5.40;99.90;;;;;;4997177;28;20720;-68
2022/12/04 02:29:25;;;;;;;16.45;10.23;;;5.50;99.90;;;;;;5004973;28;20069;-69
2022/12/04 02:32:12;;;;;;;17.05;9.90;;;5.60;99.90;;;;;;5002610;28;20030;-68
2022/12/04 02:34:54;;;;;;;19.52;11.35;;;5.60;99.90;;;;;;5002409;28;20038;-69
2022/12/04 02:37:31;;;;;;;14.48;10.10;;;5.40;99.90;;;;;;5004240;28;20061;-68
2022/12/04 02:40:19;;;;;;;17.85;10.85;;;5.50;99.90;;;;;;5002395;28;20052;-69
2022/12/04 02:43:02;;;;;;;17.58;11.05;;;5.50;99.90;;;;;;5004103;28;20061;-69
2022/12/04 02:45:36;;;;;;;15.95;9.27;;;5.40;99.90;;;;;;5000514;28;20040;-68
2022/12/04 02:48:05;;;;;;;16.50;10.23;;;5.50;99.90;;;;;;5002907;28;20038;-69
2022/12/04 02:50:35;;;;;;;17.45;9.43;;;5.40;99.90;;;;;;5004059;28;20022;-69
2022/12/04 02:53:07;;;;;;;17.58;10.45;;;5.50;99.90;;;;;;5003840;28;20022;-69
2022/12/04 02:55:47;;;;;;;15.43;9.75;;;5.60;99.90;;;;;;5003845;28;20037;-68
2022/12/04 02:58:27;;;;;;;20.13;11.05;;;5.60;99.90;;;;;;4996642;28;20033;-69
2022/12/04 03:00:56;;;;;;;17.80;9.93;;;5.60;99.90;;;;;;5003793;28;20065;-67
2022/12/04 03:03:25;;;;;;;18.55;11.77;;;5.50;99.90;;;;;;5004152;28;20060;-67
2022/12/04 03:06:02;;;;;;;17.48;10.65;;;5.50;99.90;;;;;;5001205;28;20033;-67
2022/12/04 03:08:36;;;;;;;16.42;10.27;;;5.30;99.90;;;;;;5000670;28;20041;-67
2022/12/04 03:11:02;;;;;;;14.82;8.70;;;5.30;99.90;;;;;;5002550;28;20449;-67
2022/12/04 03:13:37;;;;;;;14.13;8.52;;;5.40;99.90;;;;;;5002252;28;20034;-67
2022/12/04 03:16:18;;;;;;;14.77;8.35;;;5.50;99.90;;;;;;5003505;28;20041;-67
2022/12/04 03:19:00;;;;;;;12.88;7.80;;;5.60;99.90;;;;;;5000899;28;20041;-67
2022/12/04 03:21:31;;;;;;;10.77;6.85;;;5.70;99.90;;;;;;5003796;28;20054;-67
2022/12/04 03:24:16;;;;;;;21.35;6.78;;;5.70;99.90;;;;;;5003048;28;20034;-67
2022/12/04 03:26:54;;;;;;;11.57;7.03;;;5.80;99.90;;;;;;5001660;28;20530;-67
2022/12/04 03:29:26;;;;;;;12.68;7.47;;;5.90;99.90;;;;;;5004493;28;20074;-67
2022/12/04 03:32:25;;;;;;;13.35;7.97;;;5.90;99.90;;;;;;5004435;28;20038;-67
2022/12/04 03:35:04;;;;;;;14.40;8.93;;;5.80;99.90;;;;;;5003566;28;20022;-67
2022/12/04 03:37:39;;;;;;;14.55;8.63;;;5.70;99.90;;;;;;5001568;28;20045;-67
2022/12/04 03:40:30;;;;;;;16.35;9.27;;;5.80;99.90;;;;;;5003002;28;20026;-67
2022/12/04 03:43:03;;;;;;;12.93;7.70;;;5.80;99.90;;;;;;5002815;28;20049;-67
2022/12/04 03:45:56;;;;;;;15.05;7.82;;;5.80;99.90;;;;;;5002721;28;20026;-67
2022/12/04 03:48:50;;;;;;;12.02;7.13;;;5.90;99.90;;;;;;5003526;28;20033;-67
2022/12/04 03:51:35;;;;;;;15.02;8.48;;;5.90;99.90;;;;;;4998990;28;20065;-67
2022/12/04 03:54:35;;;;;;;12.65;8.15;;;5.80;99.90;;;;;;5001992;28;20030;-67
2022/12/04 03:57:10;;;;;;;15.93;8.82;;;5.80;99.90;;;;;;5001577;28;20046;-67
2022/12/04 03:59:45;;;;;;;13.35;9.13;;;5.80;99.90;;;;;;5001386;28;20497;-67
2022/12/04 04:02:13;;;;;;;;;;;5.70;99.90;;;;;;5004143;28;20057;-67
2022/12/04 04:04:42;;;;;;;15.27;8.98;;;5.70;99.90;;;;;;4998412;28;20008;-67
2022/12/04 04:07:20;;;;;;;15.40;9.27;;;5.60;99.90;;;;;;4997518;28;20129;-67
2022/12/04 04:09:49;;;;;;;11.80;7.72;;;5.60;99.90;;;;;;4995844;28;20029;-67
2022/12/04 04:12:19;;;;;;;13.98;7.82;;;5.60;99.90;;;;;;4998006;28;21259;-67
2022/12/04 04:26:12;;;;;;;15.25;6.57;;;5.60;99.90;;;;;;4994251;28;20684;-67
2022/12/04 04:28:40;;;;;;;12.18;7.80;;;5.70;99.90;;;;;;5003489;28;20145;-67
2022/12/04 04:31:37;;;;;;;10.77;6.15;;;5.70;99.90;;;;;;4995037;28;20101;-67
2022/12/04 04:34:14;;;;;;;14.18;8.15;;;5.70;99.90;;;;;;4997311;28;20053;-67
2022/12/04 04:36:54;;;;;;;11.88;8.38;;;5.80;99.90;;;;;;4993548;28;20052;-67
2022/12/04 04:39:41;;;;;;;11.48;7.43;;;5.70;99.90;;;;;;4998252;28;20539;-67
2022/12/04 04:42:26;;;;;;;14.32;8.82;;;5.60;99.90;;;;;;4997182;28;20053;-67
2022/12/04 04:45:05;;;;;;;16.02;9.48;;;5.50;99.90;;;;;;4994051;28;20872;-67
2022/12/04 04:48:03;;;;;;;15.43;9.32;;;5.40;99.90;;;;;;4991926;28;20136;-67
2022/12/04 04:50:31;;;;;;;15.63;9.18;;;5.40;99.90;;;;;;4975530;28;20042;-67
2022/12/04 04:53:02;;;;;;;13.57;8.45;;;5.50;99.90;;;;;;4995971;28;20046;-67
2022/12/04 04:55:33;;;;;;;12.40;8.27;;;5.60;99.90;;;;;;5004355;28;20034;-67
2022/12/04 04:58:09;;;;;;;13.88;8.98;;;5.60;99.90;;;;;;5004844;28;20041;-67
2022/12/04 05:00:35;;;;;;;15.50;9.88;;;5.40;99.90;;;;;;5004081;28;20025;-67
2022/12/04 05:03:01;;;;;;;15.63;10.55;;;5.40;99.90;;;;;;5005215;28;20034;-67
2022/12/04 05:05:26;;;;;;;14.32;8.75;;;5.50;99.90;;;;;;5004694;28;20110;-67
2022/12/04 05:07:52;;;;;;;14.07;9.00;;;5.50;99.90;;;;;;5006544;28;20033;-67
2022/12/04 05:10:18;;;;;;;11.95;7.30;;;5.60;99.90;;;;;;5007089;28;20594;-67
2022/12/04 05:12:43;;;;;;;24.63;18.23;;;5.70;99.90;;;;;;5008089;28;20030;-67
2022/12/04 05:15:09;;;;;;;18.02;12.63;;;5.60;99.90;;;;;;5007503;28;20045;-67
2022/12/04 05:17:35;;;;;;;15.10;9.85;;;5.50;99.90;;;;;;5007663;28;20080;-67
2022/12/04 05:20:05;;;;;;;15.68;9.07;;;5.50;99.90;;;;;;5007461;28;20033;-67
2022/12/04 05:22:33;;;;;;;16.45;10.13;;;5.30;99.90;;;;;;5007987;28;20156;-67
2022/12/04 05:24:59;;;;;;;15.50;9.43;;;5.40;99.90;;;;;;5008868;28;20034;-67
2022/12/04 05:27:26;;;;;;;15.02;9.32;;;5.40;99.90;;;;;;5007620;28;20042;-67
2022/12/04 05:29:53;;;;;;;13.77;8.55;;;5.50;99.90;;;;;;5007905;28;20048;-67
2022/12/04 05:32:20;;;;;;;14.48;8.90;;;5.50;99.90;;;;;;5007426;28;20038;-67
2022/12/04 05:34:53;;;;;;;12.38;8.57;;;5.50;99.90;;;;;;5008582;28;20091;-67
2022/12/04 05:37:19;;;;;;;12.95;8.23;;;5.60;99.90;;;;;;5007447;28;20026;-67
2022/12/04 05:39:46;;;;;;;12.50;8.23;;;5.60;99.90;;;;;;5007141;28;20038;-67
2022/12/04 05:42:12;;;;;;;13.73;8.85;;;5.60;99.90;;;;;;5011870;28;20099;-67
2022/12/04 05:44:38;;;;;;;12.82;8.05;;;5.60;99.90;;;;;;5011634;28;20042;-67
2022/12/04 05:47:04;;;;;;;11.85;7.68;;;5.50;99.90;;;;;;5010216;28;20484;-67
2022/12/04 05:49:31;;;;;;;11.98;7.18;;;5.50;99.90;;;;;;5008192;28;20044;-67
2022/12/04 05:51:57;;;;;;;13.43;7.13;;;5.60;99.90;;;;;;5009680;28;20088;-67
2022/12/04 05:54:23;;;;;;;14.38;8.23;;;5.60;99.90;;;;;;5010709;28;20022;-67
2022/12/04 05:56:50;;;;;;;12.32;7.55;;;5.70;99.90;;;;;;5019060;28;20026;-67
2022/12/04 05:59:16;;;;;;;12.38;7.50;;;5.70;99.90;;;;;;5014595;28;20034;-67
2022/12/04 06:01:41;;;;;;;17.38;9.45;;;5.70;99.90;;;;;;5010086;28;20030;-67
2022/12/04 06:04:07;;;;;;;13.10;8.65;;;5.70;99.90;;;;;;5009473;28;20388;-67
2022/12/04 06:06:33;;;;;;;12.90;7.78;;;5.70;99.90;;;;;;5019273;28;20037;-67
2022/12/04 06:08:59;;;;;;;11.50;8.40;;;5.80;99.90;;;;;;5023074;28;20037;-67
2022/12/04 06:11:31;;;;;;;11.80;8.25;;;5.70;99.90;;;;;;5019306;28;20035;-67
2022/12/04 06:13:59;;;;;;;12.90;7.53;;;5.60;99.90;;;;;;5014781;28;20050;-67
2022/12/04 06:16:31;;;;;;;10.95;7.03;;;5.50;99.90;;;;;;5016673;28;20025;-67
2022/12/04 06:18:59;;;;;;;9.60;5.32;;;5.60;99.90;;;;;;5008324;28;20027;-67
2022/12/04 06:21:26;;;;;;;8.45;4.97;;;5.70;99.90;;;;;;5013322;28;20033;-67
2022/12/04 06:23:52;;;;;;;15.07;8.02;;;6.00;99.90;;;;;;5009421;28;20121;-67
2022/12/04 06:26:20;;;;;;;11.80;7.72;;;5.80;99.90;;;;;;5010227;28;20053;-67
2022/12/04 06:28:46;;;;;;;13.35;6.30;;;5.80;99.90;;;;;;5008285;28;20040;-67
2022/12/04 06:31:14;;;;;;;15.30;7.28;;;5.80;99.90;;;;;;5010057;28;20113;-67
2022/12/04 06:33:40;;;;;;;12.68;7.30;;;5.70;99.90;;;;;;5011317;28;20026;-67
2022/12/04 06:36:12;;;;;;;8.50;4.75;;;5.60;99.90;;;;;;5012470;28;20022;-67
2022/12/04 06:38:38;;;;;;;9.02;5.68;;;5.80;99.90;;;;;;5018314;28;20036;-67
2022/12/04 06:41:06;;;;;;;12.32;6.97;;;6.00;99.90;;;;;;5023527;28;20032;-67
2022/12/04 06:43:32;;;;;;;12.45;7.47;;;5.80;99.90;;;;;;5021884;28;20133;-67
2022/12/04 06:46:18;;;;;;;15.45;11.43;;;5.80;99.90;;;;;;5007642;28;20163;-67
2022/12/04 06:48:44;;;;;;;11.77;7.63;;;5.80;99.90;;;;;;5013434;28;20041;-67
2022/12/04 06:51:23;;;;;;;14.00;8.38;;;5.80;99.90;;;;;;5007102;28;20022;-67
2022/12/04 06:53:49;;;;;;;12.20;6.30;;;5.80;99.90;;;;;;5008103;28;20029;-67
2022/12/04 06:56:17;;;;;;;12.25;7.78;;;6.00;99.90;;;;;;5025779;28;20113;-67
2022/12/04 06:58:51;;;;;;;11.15;6.65;;;5.90;99.90;;;;;;5014167;28;20040;-67
2022/12/04 07:01:20;;;;;;;9.77;5.97;;;5.90;99.90;;;;;;5013971;28;20112;-67
2022/12/04 07:03:47;;;;;;;9.38;5.50;;;6.10;99.90;;;;;;5001971;28;20026;-67
2022/12/04 07:06:19;;;;;;;11.73;6.13;;;6.20;99.90;;;;;;5009025;28;20057;-67
2022/12/04 07:08:46;;;;;;;8.32;4.95;;;6.30;99.90;;;;;;5008256;28;20099;-67
2022/12/04 07:11:12;;;;;;;10.25;5.38;;;6.40;99.90;;;;;;5017846;28;20034;-66
2022/12/04 07:13:38;;;;;;;7.45;5.00;;;6.30;99.90;;;;;;5021215;28;20616;-68
2022/12/04 07:16:06;;;;;;;9.50;5.45;;;6.30;99.90;;;;;;5023782;28;20120;-68
2022/12/04 07:18:33;;;;;;;9.52;4.85;;;6.30;99.90;;;;;;5018051;28;20034;-68
2022/12/04 07:20:59;;;;;;;9.18;5.80;;;6.30;99.90;;;;;;5007969;28;20030;-67
2022/12/04 07:23:25;;;;;;;13.30;7.32;;;6.10;99.90;;;;;;5017058;28;20127;-68
2022/12/04 07:25:51;;;;;;;12.40;7.95;;;5.90;99.90;;;;;;5008275;28;20610;-68
2022/12/04 07:28:16;;;;;;;13.13;8.00;;;5.90;99.90;;;;;;5007140;28;20049;-68
2022/12/04 07:30:42;;;;;;;13.02;7.85;;;5.90;99.90;;;;;;5019092;28;20038;-67
2022/12/04 07:33:08;;;;;;;65.20;35.58;;;5.90;99.90;;;;;;5008836;28;20084;-67
2022/12/04 07:35:33;;;;;;;22.17;15.02;;;6.00;99.90;;;;;;5013452;28;20026;-68
2022/12/04 07:37:59;;;;;;;16.20;10.38;;;5.90;99.90;;;;;;5008194;28;20021;-67
2022/12/04 07:40:25;;;;;;;13.50;8.10;;;5.70;99.90;;;;;;5013536;28;20488;-68
2022/12/04 07:42:50;;;;;;;15.23;9.23;;;5.80;99.90;;;;;;5008349;28;20123;-67
2022/12/04 07:45:16;;;;;;;17.05;9.52;;;5.70;99.90;;;;;;5005336;28;20029;-68
2022/12/04 07:47:42;;;;;;;14.50;8.80;;;5.70;99.90;;;;;;5007602;28;20038;-68
2022/12/04 07:50:07;;;;;;;14.73;8.98;;;5.70;99.90;;;;;;5014409;28;20030;-67
2022/12/04 07:52:37;;;;;;;14.77;9.18;;;5.80;99.90;;;;;;5007553;28;20033;-66
2022/12/04 07:55:06;;;;;;;14.73;8.45;;;5.80;99.90;;;;;;4999584;28;20033;-68
2022/12/04 07:57:32;;;;;;;14.07;9.75;;;5.90;99.90;;;;;;5005921;28;20042;-68
2022/12/04 07:59:58;;;;;;;14.27;9.27;;;5.90;99.90;;;;;;5003310;28;20026;-68
2022/12/04 08:02:24;;;;;;;12.10;7.25;;;5.80;99.90;;;;;;5006153;28;20063;-67
2022/12/04 08:04:50;;;;;;;12.15;6.90;;;5.90;99.90;;;;;;5007218;28;20038;-68
2022/12/04 08:07:15;;;;;;;10.88;6.97;;;6.00;99.90;;;;;;5001540;28;20850;-67
2022/12/04 08:09:41;;;;;;;10.73;6.22;;;6.10;99.90;;;;;;5004040;28;20464;-68
2022/12/04 08:12:07;;;;;;;9.32;6.45;;;6.10;99.90;;;;;;5009634;28;20029;-68
2022/12/04 08:14:32;;;;;;;13.10;7.50;;;6.20;99.90;;;;;;5007044;28;20374;-67
2022/12/04 08:16:58;;;;;;;13.35;8.20;;;6.10;99.90;;;;;;5003448;28;20030;-68
2022/12/04 08:19:24;;;;;;;13.88;8.27;;;6.20;99.90;;;;;;5004203;28;20025;-68
2022/12/04 08:21:50;;;;;;;13.15;8.57;;;6.10;99.90;;;;;;5003743;28;20131;-68
2022/12/04 08:24:16;;;;;;;12.10;8.18;;;6.10;99.90;;;;;;5017037;28;20111;-68
2022/12/04 08:26:41;;;;;;;11.55;7.57;;;6.00;99.90;;;;;;5009078;28;20061;-69
2022/12/04 08:29:07;;;;;;;14.90;8.85;;;6.00;99.90;;;;;;4998088;28;20187;-69
2022/12/04 08:31:34;;;;;;;13.38;9.52;;;6.00;99.90;;;;;;5009251;28;20037;-69
2022/12/04 08:34:02;;;;;;;16.40;9.80;;;6.10;99.90;;;;;;5003990;28;20642;-69
2022/12/04 08:36:29;;;;;;;15.38;9.80;;;6.00;99.90;;;;;;5006524;28;20030;-69
2022/12/04 08:38:55;;;;;;;16.98;10.63;;;6.10;99.90;;;;;;5002101;28;20057;-69
2022/12/04 08:41:23;;;;;;;14.90;9.05;;;6.00;99.90;;;;;;5002440;28;20057;-69
2022/12/04 08:43:49;;;;;;;14.35;10.02;;;5.80;99.90;;;;;;5004134;28;20041;-69
2022/12/04 08:46:16;;;;;;;13.38;9.10;;;5.90;99.90;;;;;;5002148;28;20144;-69
2022/12/04 08:48:43;;;;;;;15.85;11.07;;;5.80;99.90;;;;;;5002832;28;20042;-69
2022/12/04 08:51:17;;;;;;;17.25;10.25;;;5.90;99.90;;;;;;5003722;28;20026;-69
2022/12/04 08:53:43;;;;;;;18.67;12.02;;;5.90;99.90;;;;;;5010054;28;20030;-69
2022/12/04 08:56:09;;;;;;;14.48;9.15;;;5.90;99.90;;;;;;4999697;28;20617;-68
2022/12/04 08:58:35;;;;;;;15.55;9.93;;;5.90;99.90;;;;;;5002184;28;20029;-69
2022/12/04 09:01:09;;;;;;;15.05;9.93;;;5.90;99.90;;;;;;5004093;28;21153;-68
2022/12/04 09:03:36;;;;;;;13.23;8.98;;;5.90;99.90;;;;;;5001794;28;20037;-69
2022/12/04 09:06:03;;;;;;;18.20;10.25;;;5.80;99.90;;;;;;5003009;28;20083;-69
2022/12/04 09:08:29;;;;;;;15.43;9.23;;;5.80;99.90;;;;;;5002559;28;20088;-69
2022/12/04 09:11:01;;;;;;;15.98;9.07;;;5.80;99.90;;;;;;5012349;28;20025;-68
2022/12/04 09:13:26;;;;;;;14.77;9.18;;;5.90;99.90;;;;;;5003420;28;20036;-69
2022/12/04 09:15:52;;;;;;;13.20;8.70;;;6.00;99.90;;;;;;5010039;28;20041;-68
2022/12/04 09:18:18;;;;;;;14.80;9.32;;;6.00;99.90;;;;;;5004435;28;20504;-68
2022/12/04 09:20:43;;;;;;;18.05;9.73;;;6.10;99.90;;;;;;5003259;28;20041;-68
2022/12/04 09:23:09;;;;;;;11.77;7.10;;;6.10;99.90;;;;;;5011299;28;20069;-69
2022/12/04 09:25:36;;;;;;;13.40;8.07;;;6.20;99.90;;;;;;5004162;28;20030;-66
2022/12/04 09:28:03;;;;;;;10.93;7.43;;;6.30;99.90;;;;;;5002502;28;20469;-66
2022/12/04 09:30:29;;;;;;;10.00;6.45;;;6.50;99.90;;;;;;5003067;28;20061;-66
2022/12/04 09:32:55;;;;;;;10.35;7.20;;;6.70;99.90;;;;;;5017419;28;20068;-66
2022/12/04 09:35:20;;;;;;;17.38;9.48;;;6.80;99.90;;;;;;5001502;28;20033;-66
2022/12/04 09:37:46;;;;;;;10.52;6.38;;;7.00;99.90;;;;;;5003742;28;20030;-67
2022/12/04 09:40:29;;;;;;;8.43;6.15;;;6.70;99.90;;;;;;5009410;28;20054;-67
2022/12/04 09:43:22;;;;;;;10.20;7.03;;;6.70;99.90;;;;;;5011828;28;20705;-66
2022/12/04 09:45:54;;;;;;;12.35;7.25;;;6.60;99.90;;;;;;5002433;28;20036;-67
2022/12/04 09:48:25;;;;;;;11.95;7.18;;;6.40;99.90;;;;;;5003228;28;20096;-67
2022/12/04 09:50:53;;;;;;;11.57;7.38;;;6.40;99.90;;;;;;5009998;28;20646;-66
2022/12/04 09:53:24;;;;;;;11.80;7.63;;;6.30;99.90;;;;;;5003783;28;20364;-66
2022/12/04 09:56:05;;;;;;;12.05;8.45;;;6.40;99.90;;;;;;4997367;28;20493;-66
2022/12/04 09:58:53;;;;;;;12.00;7.55;;;6.60;99.90;;;;;;5001625;28;20096;-66
2022/12/04 10:01:34;;;;;;;12.98;7.95;;;6.60;99.90;;;;;;5000385;28;20034;-67
2022/12/04 10:04:00;;;;;;;10.85;7.07;;;6.60;99.90;;;;;;5000295;28;20106;-67
2022/12/04 10:06:32;;;;;;;11.57;6.97;;;6.60;99.90;;;;;;4996746;28;20085;-67
2022/12/04 10:09:07;;;;;;;10.13;6.63;;;6.70;99.90;;;;;;5002306;28;20189;-66
2022/12/04 10:11:41;;;;;;;9.88;6.55;;;6.70;99.90;;;;;;5005644;28;20041;-66
2022/12/04 10:14:44;;;;;;;12.30;7.47;;;6.70;99.90;;;;;;5007592;28;20488;-67
2022/12/04 10:17:44;;;;;;;10.05;6.32;;;6.80;99.90;;;;;;5025218;28;20104;-68
2022/12/04 10:20:35;;;;;;;11.70;6.57;;;6.90;99.90;;;;;;4998520;28;20034;-66
2022/12/04 10:23:35;;;;;;;11.73;6.55;;;6.80;99.90;;;;;;5015332;28;20050;-66
2022/12/04 10:26:03;;;;;;;8.93;5.50;;;6.80;99.90;;;;;;5000729;28;20120;-66
2022/12/04 10:28:37;;;;;;;12.35;7.25;;;6.80;99.90;;;;;;5007839;28;20443;-66
2022/12/04 10:31:08;;;;;;;14.10;6.93;;;6.90;99.90;;;;;;5008730;28;20614;-66
2022/12/04 10:33:52;;;;;;;14.68;7.90;;;7.00;99.90;;;;;;5006722;28;20038;-66
2022/12/04 10:36:22;;;;;;;10.73;7.60;;;7.00;99.90;;;;;;5005459;28;20038;-66
2022/12/04 10:38:59;;;;;;;12.13;8.07;;;7.10;99.90;;;;;;5007374;28;20103;-66
2022/12/04 10:41:32;;;;;;;11.80;6.40;;;7.00;99.90;;;;;;5006177;28;20424;-67
2022/12/04 10:43:58;;;;;;;11.50;5.53;;;7.00;99.90;;;;;;4985130;28;20037;-68
2022/12/04 10:46:27;;;;;;;10.02;5.88;;;7.00;99.90;;;;;;5002285;28;20092;-68
2022/12/04 10:49:03;;;;;;;10.02;6.10;;;6.90;99.90;;;;;;5003431;28;20034;-68
2022/12/04 10:51:38;;;;;;;9.32;5.90;;;6.90;99.90;;;;;;5004515;28;20372;-68
2022/12/04 10:54:23;;;;;;;9.10;5.45;;;6.90;99.90;;;;;;5005675;28;20029;-68
2022/12/04 10:56:57;;;;;;;9.02;5.70;;;6.80;99.90;;;;;;5008612;28;20038;-68
2022/12/04 10:59:24;;;;;;;8.93;5.40;;;6.70;99.90;;;;;;5006781;28;20325;-68
2022/12/04 11:01:57;;;;;;;11.43;7.28;;;6.80;99.90;;;;;;5009667;28;20037;-68
2022/12/04 11:04:25;;;;;;;14.07;10.10;;;6.80;99.90;;;;;;5005183;28;20034;-68
2022/12/04 11:07:26;;;;;;;16.15;10.20;;;6.90;99.90;;;;;;5006414;28;20034;-68
2022/12/04 11:09:55;;;;;;;9.82;6.05;;;6.90;99.90;;;;;;5004327;28;20044;-68
2022/12/04 11:12:22;;;;;;;8.48;5.05;;;6.60;99.90;;;;;;5004941;28;20029;-68
2022/12/04 11:14:59;;;;;;;9.38;5.65;;;6.50;99.90;;;;;;5007670;28;20034;-68
2022/12/04 11:17:24;;;;;;;8.68;4.97;;;6.50;99.90;;;;;;5008251;28;20021;-68
2022/12/04 11:20:21;;;;;;;9.25;6.03;;;6.50;99.90;;;;;;5009080;28;20396;-68
2022/12/04 11:22:53;;;;;;;10.27;6.60;;;6.60;99.90;;;;;;5006417;28;20046;-68
2022/12/04 11:25:21;;;;;;;11.43;7.07;;;6.60;99.90;;;;;;5009038;28;20038;-68
2022/12/04 11:27:50;;;;;;;11.52;7.40;;;6.60;99.90;;;;;;4999490;28;20082;-68
2022/12/04 11:30:23;;;;;;;11.18;6.78;;;6.50;99.90;;;;;;5004222;28;20720;-68
2022/12/04 11:32:49;;;;;;;10.55;6.90;;;6.40;99.90;;;;;;4989701;28;20083;-68
2022/12/04 11:35:21;;;;;;;12.68;6.75;;;6.60;99.90;;;;;;4996451;28;20038;-68
2022/12/04 11:38:07;;;;;;;9.25;5.88;;;6.70;99.90;;;;;;4998381;28;20032;-68
2022/12/04 11:40:34;;;;;;;9.25;6.00;;;6.70;99.90;;;;;;5007688;28;20033;-68
2022/12/04 11:43:13;;;;;;;9.07;6.38;;;6.80;99.90;;;;;;5005250;28;20045;-68
2022/12/04 11:45:39;;;;;;;10.43;6.47;;;6.70;99.90;;;;;;4998007;28;20107;-68
2022/12/04 11:48:14;;;;;;;10.88;6.60;;;6.70;99.90;;;;;;5005915;28;20029;-68
2022/12/04 11:50:43;;;;;;;10.18;5.78;;;6.70;99.90;;;;;;5005407;28;20042;-68
2022/12/04 11:53:17;;;;;;;9.95;6.25;;;6.70;99.90;;;;;;5008069;28;20030;-68
2022/12/04 11:56:12;;;;;;;11.13;7.45;;;6.70;99.90;;;;;;5001144;28;20161;-68
2022/12/04 11:58:44;;;;;;;126.85;66.80;;;6.70;99.90;;;;;;5006425;28;20192;-68
2022/12/04 12:01:44;;;;;;;24.80;13.63;;;6.80;99.90;;;;;;5006167;28;20060;-68
2022/12/04 12:04:25;;;;;;;20.05;12.10;;;6.70;99.90;;;;;;5006231;28;20440;-68
2022/12/04 12:06:59;;;;;;;28.58;17.83;;;6.70;99.90;;;;;;5002208;28;20033;-68
2022/12/04 12:09:45;;;;;;;46.90;27.45;;;6.70;99.90;;;;;;5001677;28;20925;-68
2022/12/04 12:12:40;;;;;;;27.90;18.75;;;6.70;99.90;;;;;;5004513;28;20033;-68
2022/12/04 12:15:12;;;;;;;25.67;17.08;;;6.70;99.90;;;;;;5004277;28;20041;-69
2022/12/04 12:18:03;;;;;;;29.65;22.50;;;6.70;99.90;;;;;;5002964;28;20126;-68
2022/12/04 12:20:36;;;;;;;27.08;20.02;;;6.70;99.90;;;;;;4988452;28;20053;-68
2022/12/04 12:23:19;;;;;;;14.23;9.15;;;6.80;99.90;;;;;;5003286;28;20579;-68
2022/12/04 12:26:11;;;;;;;12.88;7.38;;;6.70;99.90;;;;;;4994820;28;20046;-68
2022/12/04 12:28:43;;;;;;;11.63;7.88;;;6.80;99.90;;;;;;4993679;28;20934;-68
2022/12/04 12:31:31;;;;;;;11.13;6.60;;;6.80;99.90;;;;;;4989556;28;20033;-68
2022/12/04 12:34:08;;;;;;;12.27;7.45;;;6.80;99.90;;;;;;4982577;28;20042;-68
2022/12/04 12:36:41;;;;;;;10.50;7.38;;;6.80;99.90;;;;;;4988554;28;20460;-68
2022/12/04 12:39:15;;;;;;;14.13;10.32;;;6.80;99.90;;;;;;4994163;28;20492;-68
2022/12/04 12:42:00;;;;;;;16.85;10.82;;;6.70;99.90;;;;;;4987885;28;20045;-67
2022/12/04 12:44:51;;;;;;;12.88;8.65;;;6.60;99.90;;;;;;4983445;28;20072;-67
2022/12/04 12:47:21;;;;;;;52.65;14.57;;;6.60;99.90;;;;;;4989734;28;20038;-68
2022/12/04 12:50:03;;;;;;;62.28;16.40;;;6.50;99.90;;;;;;4985671;28;20040;-68
2022/12/04 12:52:42;;;;;;;15.70;9.18;;;6.30;99.90;;;;;;4987573;28;20516;-68
2022/12/04 12:55:16;;;;;;;14.85;9.60;;;6.40;99.90;;;;;;4984439;28;20179;-68
2022/12/04 12:57:46;;;;;;;18.67;12.95;;;6.40;99.90;;;;;;4988497;28;20038;-68
2022/12/04 13:00:16;;;;;;;18.77;11.45;;;6.40;99.90;;;;;;4997568;28;20033;-68
2022/12/04 13:02:52;;;;;;;17.20;12.65;;;6.40;99.90;;;;;;4987113;28;20030;-68
2022/12/04 13:05:34;;;;;;;22.40;13.55;;;6.50;99.90;;;;;;4996172;28;20527;-69
2022/12/04 13:08:14;;;;;;;85.30;47.17;;;6.40;99.90;;;;;;4993412;28;20392;-69
2022/12/04 13:11:09;;;;;;;584.88;425.60;;;6.40;99.90;;;;;;4990805;28;20034;-69
2022/12/04 13:13:43;;;;;;;70.45;47.85;;;6.40;99.90;;;;;;4988904;28;20614;-69
2022/12/04 13:16:12;;;;;;;26.00;18.23;;;6.30;99.90;;;;;;4992361;28;20034;-69
2022/12/04 13:18:50;;;;;;;14.50;11.27;;;6.30;99.90;;;;;;4998733;28;20433;-69
2022/12/04 13:21:40;;;;;;;13.73;8.68;;;6.30;99.90;;;;;;4986120;28;20037;-68